Time;durP1;ratioP1;P1;durP2;ratioP2;P2;SDS_P1;SDS_P2;PMS_P1;PMS_P2;Temp;Humidity;BMP_temperature;BMP_pressure;BME280_temperature;BME280_humidity;BME280_pressure;Samples;Min_cycle;Max_cycle;Signal;HPM_P1;HPM_P2
2021/03/27 00:01:41;;;;;;;53.27;24.00;;;6.50;86.30;;;;;;4377318;32;20239;-74
2021/03/27 00:04:13;;;;;;;54.20;24.10;;;6.50;86.60;;;;;;4376589;32;20521;-74
2021/03/27 00:06:45;;;;;;;54.37;23.93;;;6.40;86.30;;;;;;4376924;32;20165;-73
2021/03/27 00:09:19;;;;;;;57.87;24.27;;;6.50;86.50;;;;;;4391209;32;20148;-74
2021/03/27 00:12:07;;;;;;;48.73;22.70;;;6.50;86.70;;;;;;4394800;32;20471;-74
2021/03/27 00:14:48;;;;;;;52.07;22.83;;;6.50;86.30;;;;;;4395729;32;20155;-74
2021/03/27 00:17:44;;;;;;;46.87;22.20;;;6.50;86.60;;;;;;4394773;32;20153;-74
2021/03/27 00:20:18;;;;;;;51.33;23.00;;;6.40;86.30;;;;;;4395999;32;20488;-74
2021/03/27 00:22:59;;;;;;;49.23;22.97;;;6.40;86.50;;;;;;4394226;32;20161;-74
2021/03/27 00:25:30;;;;;;;50.37;22.97;;;6.50;86.60;;;;;;4393819;32;20199;-74
2021/03/27 00:28:04;;;;;;;49.23;22.37;;;6.50;86.60;;;;;;4393590;32;20175;-74
2021/03/27 00:30:39;;;;;;;47.93;21.80;;;6.40;86.80;;;;;;4396047;32;20467;-74
2021/03/27 00:33:06;;;;;;;50.03;21.63;;;6.50;86.80;;;;;;4393996;32;20147;-74
2021/03/27 00:35:42;;;;;;;50.20;22.00;;;6.50;86.30;;;;;;4393733;32;20153;-74
2021/03/27 00:38:18;;;;;;;45.63;20.57;;;6.50;86.00;;;;;;4394064;32;20197;-74
2021/03/27 00:40:48;;;;;;;48.70;21.93;;;6.60;85.90;;;;;;4395184;32;20210;-74
2021/03/27 00:43:40;;;;;;;46.80;21.20;;;6.60;85.30;;;;;;4394443;32;20164;-73
2021/03/27 00:46:10;;;;;;;46.93;20.93;;;6.70;85.00;;;;;;4381343;32;20193;-74
2021/03/27 00:48:44;;;;;;;42.93;20.00;;;6.70;84.80;;;;;;4368680;32;20500;-74
2021/03/27 00:51:31;;;;;;;43.37;19.67;;;6.80;84.70;;;;;;4380331;32;20206;-74
2021/03/27 00:54:22;;;;;;;44.07;19.90;;;6.80;84.60;;;;;;4380371;32;20156;-74
2021/03/27 00:57:04;;;;;;;44.37;20.33;;;6.80;84.40;;;;;;4379571;32;20193;-74
2021/03/27 00:59:36;;;;;;;42.87;19.43;;;6.80;84.60;;;;;;4379913;32;20218;-75
2021/03/27 01:02:10;;;;;;;42.97;20.67;;;6.80;84.80;;;;;;4379508;32;20220;-74
2021/03/27 01:04:39;;;;;;;45.03;20.00;;;6.80;85.10;;;;;;4379762;32;20215;-73
2021/03/27 01:07:11;;;;;;;44.50;19.63;;;6.80;84.80;;;;;;4379121;32;20206;-73
2021/03/27 01:09:50;;;;;;;44.73;19.20;;;6.80;84.80;;;;;;4379194;32;20181;-73
2021/03/27 01:12:25;;;;;;;45.93;20.50;;;6.80;84.20;;;;;;4380789;32;20235;-74
2021/03/27 01:14:56;;;;;;;41.93;19.27;;;6.90;84.50;;;;;;4379275;32;20201;-74
2021/03/27 01:17:28;;;;;;;46.80;20.60;;;6.90;84.50;;;;;;4378944;32;20157;-74
2021/03/27 01:19:59;;;;;;;39.90;19.77;;;7.00;84.40;;;;;;4379219;32;20158;-74
2021/03/27 01:22:27;;;;;;;44.83;18.93;;;7.00;84.10;;;;;;4384178;32;20226;-74
2021/03/27 01:24:59;;;;;;;43.53;20.27;;;7.00;84.20;;;;;;4396613;32;20188;-74
2021/03/27 01:27:34;;;;;;;44.63;19.20;;;7.10;84.00;;;;;;4395465;32;20229;-74
2021/03/27 01:30:06;;;;;;;44.03;19.83;;;7.10;84.10;;;;;;4396631;32;20231;-74
2021/03/27 01:32:49;;;;;;;38.80;19.07;;;7.00;84.20;;;;;;4395275;32;20175;-74
2021/03/27 01:35:31;;;;;;;45.90;19.83;;;7.00;84.80;;;;;;4396132;32;20196;-74
2021/03/27 01:38:16;;;;;;;45.87;19.67;;;7.10;87.30;;;;;;4396126;32;20153;-74
2021/03/27 01:40:58;;;;;;;41.10;20.40;;;7.10;90.20;;;;;;4396152;32;20143;-74
2021/03/27 01:43:49;;;;;;;47.40;21.17;;;7.00;91.80;;;;;;4397376;32;20158;-74
2021/03/27 01:46:58;;;;;;;43.07;19.73;;;6.80;92.70;;;;;;4395972;32;20149;-75
2021/03/27 01:50:09;;;;;;;48.50;21.07;;;6.60;94.70;;;;;;4378777;32;20230;-75
2021/03/27 01:53:11;;;;;;;46.33;21.23;;;6.60;95.60;;;;;;4361825;32;20524;-74
2021/03/27 01:55:59;;;;;;;47.23;21.07;;;6.50;96.80;;;;;;4334049;33;20167;-74
2021/03/27 01:58:49;;;;;;;48.47;21.57;;;6.50;97.20;;;;;;4334774;33;20160;-74
2021/03/27 02:01:41;;;;;;;52.43;22.20;;;6.50;97.10;;;;;;4334689;33;20176;-74
2021/03/27 02:04:24;;;;;;;50.23;22.20;;;6.50;97.70;;;;;;4333804;33;20196;-74
2021/03/27 02:06:57;;;;;;;48.03;21.83;;;6.50;98.30;;;;;;4334059;33;20193;-74
2021/03/27 02:09:55;;;;;;;47.70;22.17;;;6.60;99.00;;;;;;4333289;33;20151;-74
2021/03/27 02:12:27;;;;;;;48.77;22.67;;;6.70;98.80;;;;;;4334610;33;20219;-74
2021/03/27 02:14:57;;;;;;;51.07;22.83;;;6.70;98.90;;;;;;4321640;33;20164;-74
2021/03/27 02:17:29;;;;;;;51.03;22.27;;;6.60;99.60;;;;;;4333694;33;20160;-74
2021/03/27 02:20:31;;;;;;;53.93;23.50;;;6.60;99.70;;;;;;4334193;33;20171;-74
2021/03/27 02:23:13;;;;;;;52.27;24.13;;;6.70;99.90;;;;;;4333026;33;20227;-74
2021/03/27 02:25:58;;;;;;;54.13;24.87;;;6.60;99.90;;;;;;4358856;32;20241;-74
2021/03/27 02:28:42;;;;;;;61.17;27.40;;;6.60;99.90;;;;;;4362796;32;20165;-74
2021/03/27 02:31:41;;;;;;;60.30;28.10;;;6.50;99.90;;;;;;4369195;32;20141;-74
2021/03/27 02:34:35;;;;;;;58.93;26.20;;;6.50;99.90;;;;;;4395606;32;20219;-74
2021/03/27 02:37:29;;;;;;;54.70;25.33;;;6.40;99.90;;;;;;4395002;32;20197;-74
2021/03/27 02:40:13;;;;;;;55.63;24.57;;;6.30;99.90;;;;;;4396155;32;20141;-74
2021/03/27 02:42:57;;;;;;;59.53;26.17;;;6.20;99.90;;;;;;4396049;32;20149;-74
2021/03/27 02:45:30;;;;;;;58.50;24.93;;;6.10;99.90;;;;;;4396490;32;20159;-74
2021/03/27 02:48:02;;;;;;;56.17;25.63;;;6.10;99.90;;;;;;4395239;32;20171;-74
2021/03/27 02:50:48;;;;;;;57.57;26.13;;;6.00;99.90;;;;;;4393983;32;20220;-74
2021/03/27 02:53:28;;;;;;;57.80;25.53;;;6.00;99.90;;;;;;4394953;32;20145;-74
2021/03/27 02:56:22;;;;;;;60.30;25.87;;;5.90;99.90;;;;;;4396463;32;20193;-74
2021/03/27 02:59:00;;;;;;;59.10;26.03;;;5.90;99.90;;;;;;4395469;32;20141;-74
2021/03/27 03:01:46;;;;;;;63.27;26.77;;;5.70;99.90;;;;;;4396021;32;20165;-74
2021/03/27 03:04:37;;;;;;;60.27;26.60;;;5.80;99.90;;;;;;4394735;32;20148;-74
2021/03/27 03:07:12;;;;;;;56.87;25.77;;;5.80;99.90;;;;;;4394271;32;20156;-74
2021/03/27 03:09:54;;;;;;;63.67;26.87;;;5.80;99.90;;;;;;4394479;32;20131;-74
2021/03/27 03:12:24;;;;;;;58.97;27.27;;;5.80;99.90;;;;;;4396198;32;20172;-74
2021/03/27 03:15:01;;;;;;;62.60;27.90;;;5.80;99.90;;;;;;4395752;32;20175;-74
2021/03/27 03:17:30;;;;;;;69.13;27.87;;;5.90;99.90;;;;;;4395456;32;20144;-74
2021/03/27 03:20:09;;;;;;;62.93;26.93;;;5.80;99.90;;;;;;4394131;32;20265;-74
2021/03/27 03:22:44;;;;;;;68.77;28.90;;;5.80;99.90;;;;;;4394740;32;20148;-74
2021/03/27 03:25:19;;;;;;;66.17;27.53;;;5.80;99.90;;;;;;4396007;32;20517;-74
2021/03/27 03:28:20;;;;;;;62.23;27.47;;;5.80;99.90;;;;;;4396037;32;20136;-74
2021/03/27 03:31:34;;;;;;;65.83;28.97;;;5.80;99.90;;;;;;4394529;32;20456;-74
2021/03/27 03:34:16;;;;;;;73.60;30.47;;;5.80;99.90;;;;;;4377226;32;20271;-74
2021/03/27 03:37:00;;;;;;;71.33;30.07;;;5.80;99.90;;;;;;4377819;32;20153;-74
2021/03/27 03:39:50;;;;;;;69.93;30.47;;;5.70;99.90;;;;;;4377458;32;20201;-74
2021/03/27 03:42:58;;;;;;;70.53;30.37;;;5.80;99.90;;;;;;4376994;32;20166;-74
2021/03/27 03:45:30;;;;;;;69.57;29.80;;;5.80;99.90;;;;;;4377216;32;20144;-74
2021/03/27 03:48:03;;;;;;;74.93;30.53;;;5.70;99.90;;;;;;4377606;32;20257;-74
2021/03/27 03:50:46;;;;;;;71.33;31.13;;;5.70;99.90;;;;;;4378188;32;20144;-74
2021/03/27 03:53:39;;;;;;;74.47;31.83;;;5.60;99.90;;;;;;4378608;32;20151;-74
2021/03/27 03:56:27;;;;;;;72.27;31.03;;;5.60;99.90;;;;;;4376466;32;20414;-74
2021/03/27 03:59:15;;;;;;;68.30;30.63;;;5.60;99.90;;;;;;4376261;32;20170;-74
2021/03/27 04:02:00;;;;;;;75.70;31.43;;;5.60;99.90;;;;;;4376151;32;20156;-74
2021/03/27 04:04:42;;;;;;;72.17;31.60;;;5.60;99.90;;;;;;4376204;32;20666;-74
2021/03/27 04:07:13;;;;;;;71.30;32.00;;;5.60;99.90;;;;;;4376363;32;20244;-74
2021/03/27 04:09:42;;;;;;;77.87;32.87;;;5.50;99.90;;;;;;4385838;32;20194;-74
2021/03/27 04:12:28;;;;;;;77.87;32.73;;;5.50;99.90;;;;;;4394988;32;20390;-74
2021/03/27 04:15:06;;;;;;;76.60;31.63;;;5.50;99.90;;;;;;4394103;32;20179;-74
2021/03/27 04:18:14;;;;;;;79.20;32.77;;;5.50;99.90;;;;;;4395577;32;20189;-74
2021/03/27 04:21:04;;;;;;;79.30;32.27;;;5.50;99.90;;;;;;4395327;32;20167;-74
2021/03/27 04:23:56;;;;;;;79.47;32.87;;;5.40;99.90;;;;;;4398506;32;20393;-74
2021/03/27 04:26:41;;;;;;;73.10;31.17;;;5.30;99.90;;;;;;4397493;32;20133;-74
2021/03/27 04:29:46;;;;;;;73.37;31.53;;;5.30;99.90;;;;;;4397193;32;20426;-74
2021/03/27 04:32:57;;;;;;;77.10;32.53;;;5.40;99.90;;;;;;4396671;32;20456;-74
2021/03/27 04:35:45;;;;;;;75.93;31.10;;;5.40;99.90;;;;;;4379961;32;20182;-74
2021/03/27 04:38:26;;;;;;;75.63;32.13;;;5.40;99.90;;;;;;4379653;32;20168;-74
2021/03/27 04:41:00;;;;;;;73.70;31.87;;;5.40;99.90;;;;;;4380082;32;20171;-74
2021/03/27 04:43:56;;;;;;;78.50;33.30;;;5.40;99.90;;;;;;4379463;32;20511;-74
2021/03/27 04:46:37;;;;;;;80.30;32.07;;;5.40;99.90;;;;;;4379351;32;20465;-74
2021/03/27 04:49:21;;;;;;;78.97;32.83;;;5.50;99.90;;;;;;4379467;32;20195;-74
2021/03/27 04:52:16;;;;;;;77.13;32.30;;;5.50;99.90;;;;;;4380259;32;20152;-74
2021/03/27 04:54:50;;;;;;;76.00;32.37;;;5.50;99.90;;;;;;4379394;32;20136;-74
2021/03/27 04:57:51;;;;;;;77.87;33.50;;;5.60;99.90;;;;;;4380164;32;20283;-74
2021/03/27 05:00:29;;;;;;;81.70;33.47;;;5.70;99.90;;;;;;4362064;32;20497;-74
2021/03/27 05:03:26;;;;;;;76.40;33.20;;;5.80;99.90;;;;;;4379403;32;20156;-74
2021/03/27 05:06:04;;;;;;;83.83;34.30;;;5.80;99.90;;;;;;4366771;32;20135;-74
2021/03/27 05:09:07;;;;;;;78.77;33.60;;;5.90;99.90;;;;;;4379499;32;20164;-74
2021/03/27 05:11:42;;;;;;;76.43;32.93;;;6.00;99.90;;;;;;4392104;32;20137;-74
2021/03/27 05:14:32;;;;;;;78.00;33.90;;;6.00;99.90;;;;;;4397746;32;20422;-74
2021/03/27 05:17:04;;;;;;;77.83;33.93;;;6.10;99.90;;;;;;4396631;32;20393;-74
2021/03/27 05:19:47;;;;;;;82.20;35.67;;;6.10;99.90;;;;;;4396390;32;20151;-74
2021/03/27 05:22:41;;;;;;;80.07;34.43;;;6.10;99.90;;;;;;4397763;32;20143;-74
2021/03/27 05:25:35;;;;;;;82.00;34.73;;;6.10;99.90;;;;;;4397948;32;20421;-74
2021/03/27 05:28:20;;;;;;;84.13;35.87;;;6.20;99.90;;;;;;4396566;32;20135;-74
2021/03/27 05:30:50;;;;;;;82.93;35.23;;;6.20;99.90;;;;;;4396506;32;20247;-74
2021/03/27 05:33:34;;;;;;;84.43;36.17;;;6.30;99.90;;;;;;4396121;32;20411;-74
2021/03/27 05:36:18;;;;;;;83.10;35.07;;;6.50;99.90;;;;;;4397156;32;20141;-74
2021/03/27 05:39:20;;;;;;;83.43;34.70;;;6.50;99.90;;;;;;4396036;32;20163;-74
2021/03/27 05:42:03;;;;;;;79.93;34.80;;;6.50;99.90;;;;;;4389534;32;20177;-74
2021/03/27 05:44:54;;;;;;;89.70;36.97;;;6.60;99.90;;;;;;4395925;32;20198;-74
2021/03/27 05:47:58;;;;;;;85.23;36.30;;;6.60;99.90;;;;;;4396040;32;20459;-74
2021/03/27 05:50:52;;;;;;;79.60;35.07;;;6.60;99.90;;;;;;4395267;32;20190;-74
2021/03/27 05:53:19;;;;;;;83.17;35.57;;;6.60;99.90;;;;;;4397362;32;20172;-74
2021/03/27 05:56:14;;;;;;;81.27;36.43;;;6.60;99.90;;;;;;4394594;32;20231;-74
2021/03/27 05:59:14;;;;;;;85.17;36.20;;;6.70;99.90;;;;;;4395840;32;20451;-74
2021/03/27 06:01:47;;;;;;;95.33;36.93;;;6.60;99.90;;;;;;4395721;32;20196;-74
2021/03/27 06:04:58;;;;;;;90.20;37.20;;;6.60;99.90;;;;;;4395233;32;20138;-74
2021/03/27 06:07:43;;;;;;;89.00;37.30;;;6.50;99.90;;;;;;4395847;32;20145;-74
2021/03/27 06:10:15;;;;;;;85.97;36.57;;;6.40;99.90;;;;;;4395786;32;20158;-74
2021/03/27 06:12:47;;;;;;;85.77;36.60;;;6.30;99.90;;;;;;4396078;32;20138;-74
2021/03/27 06:16:08;;;;;;;88.33;38.27;;;6.40;99.90;;;;;;4395396;32;20413;-74
2021/03/27 06:18:40;;;;;;;89.67;37.43;;;6.50;99.90;;;;;;4396532;32;20236;-74
2021/03/27 06:21:25;;;;;;;85.60;36.67;;;6.50;99.90;;;;;;4397008;32;20172;-74
2021/03/27 06:23:55;;;;;;;94.73;38.70;;;6.60;99.90;;;;;;4395096;32;20471;-73
2021/03/27 06:26:39;;;;;;;92.17;37.83;;;6.80;99.90;;;;;;4396020;32;20448;-74
2021/03/27 06:29:38;;;;;;;86.20;37.10;;;6.90;99.90;;;;;;4396810;32;20165;-74
2021/03/27 06:32:42;;;;;;;90.97;38.17;;;6.90;99.90;;;;;;4395625;32;20180;-73
2021/03/27 06:35:31;;;;;;;92.47;37.90;;;7.00;99.90;;;;;;4396721;32;20133;-73
2021/03/27 06:38:29;;;;;;;89.23;38.33;;;7.00;99.90;;;;;;4394704;32;20230;-74
2021/03/27 06:41:12;;;;;;;85.63;37.70;;;7.10;99.90;;;;;;4396281;32;20185;-74
2021/03/27 06:44:07;;;;;;;86.60;37.20;;;7.10;99.90;;;;;;4394260;32;20213;-75
2021/03/27 06:46:58;;;;;;;87.87;38.27;;;7.10;99.90;;;;;;4395062;32;20394;-75
2021/03/27 06:49:46;;;;;;;91.70;38.47;;;7.10;99.90;;;;;;4394782;32;20142;-75
2021/03/27 06:52:39;;;;;;;85.83;38.40;;;7.10;99.90;;;;;;4394461;32;20161;-75
2021/03/27 06:55:15;;;;;;;89.60;37.90;;;7.20;99.90;;;;;;4395056;32;20188;-75
2021/03/27 06:58:25;;;;;;;90.80;39.07;;;7.20;99.90;;;;;;4395208;32;20139;-74
2021/03/27 07:01:22;;;;;;;91.37;38.07;;;7.20;99.90;;;;;;4389917;32;20144;-75
2021/03/27 07:04:18;;;;;;;85.83;37.37;;;7.30;99.90;;;;;;4394901;32;20178;-75
2021/03/27 07:07:08;;;;;;;84.23;37.23;;;7.40;99.90;;;;;;4394789;32;20143;-75
2021/03/27 07:10:00;;;;;;;89.80;38.23;;;7.50;99.90;;;;;;4394511;32;20136;-75
2021/03/27 07:12:32;;;;;;;89.57;38.27;;;7.60;99.90;;;;;;4394418;32;20162;-75
2021/03/27 07:15:21;;;;;;;96.43;39.27;;;7.70;99.90;;;;;;4394671;32;20144;-75
2021/03/27 07:18:20;;;;;;;83.40;37.47;;;7.70;99.90;;;;;;4393987;32;20190;-75
2021/03/27 07:21:04;;;;;;;85.87;38.43;;;7.90;99.90;;;;;;4377685;32;20174;-75
2021/03/27 07:23:49;;;;;;;86.27;38.03;;;7.90;99.90;;;;;;4377423;32;20167;-72
2021/03/27 07:26:30;;;;;;;85.37;37.47;;;8.00;99.90;;;;;;4377643;32;20136;-73
2021/03/27 07:29:31;;;;;;;94.17;39.37;;;8.10;99.60;;;;;;4377924;32;20211;-73
2021/03/27 07:32:27;;;;;;;88.17;37.83;;;8.30;99.70;;;;;;4377833;32;20178;-73
2021/03/27 07:35:03;;;;;;;88.53;37.27;;;8.60;99.10;;;;;;4378774;32;20140;-72
2021/03/27 07:37:32;;;;;;;86.77;38.57;;;8.90;97.90;;;;;;4377131;32;20173;-72
2021/03/27 07:39:58;;;;;;;88.87;38.20;;;9.10;97.30;;;;;;4378215;32;20166;-73
2021/03/27 07:42:46;;;;;;;91.43;37.87;;;9.30;96.60;;;;;;4378187;32;20231;-73
2021/03/27 07:45:50;;;;;;;88.70;37.57;;;9.50;96.10;;;;;;4377259;32;20406;-73
2021/03/27 07:48:36;;;;;;;87.73;38.53;;;9.80;95.40;;;;;;4376311;32;20217;-71
2021/03/27 07:51:44;;;;;;;84.57;36.17;;;10.20;94.10;;;;;;4377181;32;20186;-71
2021/03/27 07:54:51;;;;;;;86.13;37.90;;;10.50;93.30;;;;;;4334306;33;20157;-71
2021/03/27 07:57:41;;;;;;;82.27;37.43;;;10.60;92.40;;;;;;4347426;33;20191;-71
2021/03/27 08:00:20;;;;;;;82.47;37.37;;;10.70;91.70;;;;;;4362847;32;20132;-72
2021/03/27 08:03:28;;;;;;;78.20;36.03;;;10.80;91.10;;;;;;4361841;32;20159;-72
2021/03/27 08:06:22;;;;;;;79.63;36.77;;;10.90;90.40;;;;;;4361740;32;20231;-72
2021/03/27 08:08:54;;;;;;;84.40;36.07;;;11.10;90.00;;;;;;4361648;33;20496;-72
2021/03/27 08:11:40;;;;;;;78.70;35.93;;;11.20;89.00;;;;;;4362073;33;20451;-72
2021/03/27 08:14:31;;;;;;;78.17;35.40;;;11.30;88.90;;;;;;4361985;33;20187;-73
2021/03/27 08:17:22;;;;;;;77.47;36.23;;;11.40;87.50;;;;;;4361481;33;20144;-72
2021/03/27 08:20:13;;;;;;;80.67;36.73;;;11.50;87.90;;;;;;4362065;33;20163;-71
2021/03/27 08:23:14;;;;;;;77.43;37.33;;;11.80;87.40;;;;;;4361845;33;20310;-73
2021/03/27 08:25:59;;;;;;;78.97;36.70;;;12.00;86.90;;;;;;4362869;33;20388;-72
2021/03/27 08:28:45;;;;;;;74.77;35.50;;;12.40;85.00;;;;;;4363079;33;20224;-76
2021/03/27 08:31:32;;;;;;;74.77;35.20;;;12.50;83.30;;;;;;4394041;32;20166;-74
2021/03/27 08:34:36;;;;;;;69.27;32.90;;;12.80;83.10;;;;;;4392903;32;20127;-73
2021/03/27 08:37:20;;;;;;;70.47;33.23;;;13.40;79.30;;;;;;4393684;32;20524;-73
2021/03/27 08:40:14;;;;;;;70.83;32.97;;;13.90;76.10;;;;;;4393123;32;20400;-71
2021/03/27 08:43:17;;;;;;;67.00;33.20;;;14.50;73.50;;;;;;4393776;32;20505;-74
2021/03/27 08:46:14;;;;;;;66.33;31.53;;;14.90;71.30;;;;;;4394151;32;20161;-74
2021/03/27 08:49:14;;;;;;;60.90;29.07;;;15.30;68.60;;;;;;4393626;32;20146;-74
2021/03/27 08:52:07;;;;;;;66.37;30.17;;;16.00;66.80;;;;;;4393486;32;20381;-72
2021/03/27 08:54:46;;;;;;;56.77;28.73;;;16.40;64.10;;;;;;4395253;32;20159;-72
2021/03/27 08:57:39;;;;;;;57.57;27.63;;;16.20;61.70;;;;;;4395005;32;20163;-72
2021/03/27 09:00:32;;;;;;;57.77;28.47;;;16.20;61.20;;;;;;4393470;32;20135;-72
2021/03/27 09:03:46;;;;;;;56.90;29.37;;;16.40;62.00;;;;;;4379671;32;20458;-73
2021/03/27 09:06:25;;;;;;;55.67;28.13;;;16.70;60.70;;;;;;4333861;33;20220;-72
2021/03/27 09:09:01;;;;;;;54.17;28.67;;;16.70;59.40;;;;;;4335298;33;20237;-72
2021/03/27 09:11:42;;;;;;;54.10;27.57;;;16.80;59.20;;;;;;4334695;33;20557;-73
2021/03/27 09:14:36;;;;;;;51.67;27.53;;;16.80;59.40;;;;;;4335230;33;20247;-73
2021/03/27 09:17:35;;;;;;;52.73;27.50;;;17.20;58.80;;;;;;4334320;33;20141;-73
2021/03/27 09:20:19;;;;;;;54.77;28.70;;;17.70;57.40;;;;;;4335313;33;20461;-72
2021/03/27 09:23:04;;;;;;;58.13;29.13;;;17.70;56.00;;;;;;4334463;33;20163;-73
2021/03/27 09:25:31;;;;;;;53.97;28.63;;;17.70;56.70;;;;;;4333968;33;20403;-72
2021/03/27 09:28:25;;;;;;;61.97;30.17;;;18.10;55.30;;;;;;4334382;33;20263;-71
2021/03/27 09:31:29;;;;;;;60.83;31.47;;;18.50;55.60;;;;;;4335174;33;20231;-72
2021/03/27 09:34:04;;;;;;;59.57;30.47;;;19.00;55.20;;;;;;4334387;33;20258;-73
2021/03/27 09:36:44;;;;;;;60.20;30.83;;;18.30;55.00;;;;;;4334665;33;20377;-71
2021/03/27 09:39:20;;;;;;;53.97;28.30;;;18.40;54.30;;;;;;4338876;33;20467;-71
2021/03/27 09:42:22;;;;;;;59.33;30.80;;;18.50;54.40;;;;;;4371604;32;20169;-72
2021/03/27 09:45:16;;;;;;;55.90;28.10;;;19.00;55.20;;;;;;4396114;32;20200;-73
2021/03/27 09:48:05;;;;;;;61.70;30.27;;;19.00;52.60;;;;;;4397020;32;20135;-73
2021/03/27 09:50:37;;;;;;;60.83;32.73;;;19.50;53.40;;;;;;4397142;32;20386;-74
2021/03/27 09:53:35;;;;;;;63.97;36.55;;;19.90;52.40;;;;;;4395563;32;20356;-73
2021/03/27 09:56:26;;;;;;;60.93;33.53;;;20.20;52.50;;;;;;4397066;32;20185;-72
2021/03/27 09:59:30;;;;;;;63.53;32.60;;;20.50;51.70;;;;;;4396879;32;20182;-73
2021/03/27 10:02:15;;;;;;;57.90;31.03;;;20.40;50.80;;;;;;4396238;32;20151;-74
2021/03/27 10:05:13;;;;;;;56.37;29.50;;;20.70;49.70;;;;;;4397027;32;20147;-74
2021/03/27 10:07:59;;;;;;;57.87;30.70;;;20.80;49.40;;;;;;4395568;32;20168;-74
2021/03/27 10:10:41;;;;;;;62.00;32.07;;;21.40;48.90;;;;;;4397118;32;20190;-74
2021/03/27 10:13:32;;;;;;;58.13;31.80;;;21.60;48.20;;;;;;4397027;32;20172;-73
2021/03/27 10:16:00;;;;;;;61.60;31.97;;;22.00;47.20;;;;;;4397041;32;20143;-72
2021/03/27 10:18:33;;;;;;;58.20;30.70;;;22.00;46.80;;;;;;4395211;32;20159;-70
2021/03/27 10:21:38;;;;;;;55.97;28.63;;;22.00;46.60;;;;;;4396844;32;20135;-69
2021/03/27 10:24:32;;;;;;;51.73;27.53;;;21.70;46.10;;;;;;4394773;32;20142;-72
2021/03/27 10:27:07;;;;;;;50.30;27.23;;;21.00;47.40;;;;;;4396363;32;20163;-72
2021/03/27 10:29:58;;;;;;;47.97;26.57;;;21.30;47.90;;;;;;4395843;32;20395;-71
2021/03/27 10:32:30;;;;;;;52.37;29.13;;;22.10;46.40;;;;;;4396078;32;20155;-71
2021/03/27 10:35:34;;;;;;;54.63;30.83;;;22.80;45.60;;;;;;4395222;32;20197;-71
2021/03/27 10:38:43;;;;;;;46.15;24.08;;;22.70;45.20;;;;;;4396244;32;20174;-71
2021/03/27 10:41:45;;;;;;;40.33;22.30;;;23.00;42.80;;;;;;4396397;32;20148;-72
2021/03/27 10:44:38;;;;;;;42.10;21.97;;;22.00;44.20;;;;;;4396137;32;20151;-71
2021/03/27 10:47:34;;;;;;;41.70;24.90;;;21.60;44.30;;;;;;4394823;32;20035;-73
2021/03/27 10:50:18;;;;;;;41.30;23.40;;;22.20;44.30;;;;;;4394886;32;20131;-73
2021/03/27 10:52:59;;;;;;;40.37;23.40;;;22.90;43.80;;;;;;4394855;32;20193;-70
2021/03/27 10:55:52;;;;;;;40.80;23.50;;;23.00;42.00;;;;;;4394959;32;20143;-72
2021/03/27 10:58:34;;;;;;;39.77;22.17;;;22.90;42.50;;;;;;4396220;32;20158;-72
2021/03/27 11:01:35;;;;;;;44.20;22.60;;;23.20;42.40;;;;;;4394330;32;20481;-73
2021/03/27 11:04:19;;;;;;;40.53;22.20;;;23.60;41.30;;;;;;4394484;32;20515;-72
2021/03/27 11:07:04;;;;;;;35.97;18.87;;;23.50;41.00;;;;;;4394378;32;20147;-74
2021/03/27 11:10:17;;;;;;;35.63;18.52;;;23.60;40.30;;;;;;4394489;32;20185;-73
2021/03/27 11:13:10;;;;;;;39.30;19.23;;;23.90;38.90;;;;;;4395434;32;20492;-72
2021/03/27 11:16:18;;;;;;;32.50;17.60;;;23.30;39.30;;;;;;4394349;32;20535;-72
2021/03/27 11:19:03;;;;;;;31.00;17.05;;;23.30;40.00;;;;;;4394461;32;20178;-73
2021/03/27 11:21:48;;;;;;;32.33;18.00;;;23.40;38.30;;;;;;4393630;32;20023;-73
2021/03/27 11:24:29;;;;;;;28.40;16.33;;;23.40;38.30;;;;;;4395844;32;20178;-73
2021/03/27 11:27:11;;;;;;;29.33;16.20;;;23.20;38.50;;;;;;4394367;32;20127;-72
2021/03/27 11:29:50;;;;;;;26.83;15.20;;;23.40;38.40;;;;;;4394372;32;20132;-73
2021/03/27 11:32:32;;;;;;;24.70;14.90;;;23.80;37.50;;;;;;4394211;32;20154;-73
2021/03/27 11:35:24;;;;;;;29.25;15.20;;;24.80;36.90;;;;;;4394351;32;20398;-73
2021/03/27 11:38:16;;;;;;;26.65;14.52;;;25.00;35.10;;;;;;4395634;32;20208;-73
2021/03/27 11:41:04;;;;;;;27.85;14.98;;;24.80;34.50;;;;;;4394109;32;20136;-73
2021/03/27 11:43:45;;;;;;;28.55;15.20;;;25.00;34.90;;;;;;4395907;32;20201;-73
2021/03/27 11:46:34;;;;;;;26.17;15.00;;;25.60;33.10;;;;;;4395086;32;20139;-72
2021/03/27 11:49:27;;;;;;;27.00;15.50;;;25.80;33.10;;;;;;4394021;32;20174;-73
2021/03/27 11:52:06;;;;;;;28.73;15.73;;;26.30;32.80;;;;;;4395423;32;20446;-73
2021/03/27 11:54:54;;;;;;;26.85;15.23;;;26.40;32.60;;;;;;4393493;32;20156;-73
2021/03/27 11:57:46;;;;;;;29.55;16.37;;;26.30;32.90;;;;;;4393603;32;20155;-71
2021/03/27 12:03:38;;;;;;;28.12;17.00;;;26.60;31.70;;;;;;4393807;32;20482;-72
2021/03/27 12:06:19;;;;;;;28.23;16.02;;;25.90;32.80;;;;;;4395448;32;20447;-74
2021/03/27 12:09:21;;;;;;;27.87;15.90;;;26.20;32.50;;;;;;4394276;32;20450;-70
2021/03/27 12:12:27;;;;;;;25.98;15.73;;;27.10;31.60;;;;;;4391033;32;20212;-73
2021/03/27 12:15:14;;;;;;;24.77;14.32;;;27.40;30.60;;;;;;4376698;32;20148;-72
2021/03/27 12:18:07;;;;;;;30.05;16.83;;;27.30;30.20;;;;;;4376804;32;20226;-73
2021/03/27 12:20:45;;;;;;;27.33;16.17;;;27.80;30.30;;;;;;4376571;32;20148;-73
2021/03/27 12:23:17;;;;;;;28.23;16.12;;;28.60;30.10;;;;;;4376121;32;20139;-73
2021/03/27 12:25:53;;;;;;;28.55;16.27;;;28.20;29.90;;;;;;4376167;32;20202;-74
2021/03/27 12:28:31;;;;;;;30.83;16.92;;;28.20;29.60;;;;;;4376097;32;20143;-73
2021/03/27 12:31:39;;;;;;;24.20;14.00;;;27.90;30.10;;;;;;4377429;32;20198;-73
2021/03/27 12:34:27;;;;;;;22.92;14.48;;;27.60;29.20;;;;;;4331941;33;20187;-72
2021/03/27 12:37:03;;;;;;;25.25;14.13;;;26.60;30.00;;;;;;4333366;33;20375;-73
2021/03/27 12:39:49;;;;;;;26.10;14.55;;;26.90;30.30;;;;;;4333484;33;20423;-73
2021/03/27 12:42:17;;;;;;;27.98;15.48;;;26.70;30.10;;;;;;4336617;33;20441;-72
2021/03/27 12:44:59;;;;;;;21.35;12.98;;;26.70;31.10;;;;;;4334170;33;20191;-71
2021/03/27 12:47:52;;;;;;;25.37;13.38;;;25.60;31.00;;;;;;4335702;33;20141;-72
2021/03/27 12:50:39;;;;;;;23.77;13.25;;;25.80;31.30;;;;;;4332896;33;20222;-74
2021/03/27 12:53:36;;;;;;;21.87;12.98;;;26.00;31.20;;;;;;4348615;33;20227;-73
2021/03/27 12:56:41;;;;;;;21.67;13.27;;;26.70;30.80;;;;;;4348890;33;20140;-71
2021/03/27 12:59:49;;;;;;;24.55;13.98;;;27.90;29.80;;;;;;4349358;33;20156;-72
2021/03/27 13:02:37;;;;;;;24.25;14.38;;;27.20;29.80;;;;;;4319075;33;20165;-72
2021/03/27 13:05:18;;;;;;;23.48;13.80;;;25.80;31.40;;;;;;4319193;33;20581;-74
2021/03/27 13:08:05;;;;;;;22.87;12.98;;;25.40;32.00;;;;;;4320038;33;20506;-74
2021/03/27 13:10:46;;;;;;;27.30;14.05;;;24.80;32.40;;;;;;4334026;33;20498;-73
2021/03/27 13:13:49;;;;;;;25.20;13.75;;;23.70;34.10;;;;;;4365421;32;20168;-71
2021/03/27 13:16:38;;;;;;;22.02;13.20;;;23.50;34.80;;;;;;4363075;32;20199;-70
2021/03/27 13:19:10;;;;;;;23.95;13.50;;;24.20;34.20;;;;;;4362762;32;20140;-72
2021/03/27 13:21:46;;;;;;;22.35;12.77;;;24.40;33.80;;;;;;4363382;32;20232;-73
2021/03/27 13:24:24;;;;;;;22.50;12.43;;;25.00;33.40;;;;;;4363594;32;20302;-74
2021/03/27 13:27:49;;;;;;;19.23;12.23;;;24.60;33.10;;;;;;4365680;32;20156;-73
2021/03/27 13:30:22;;;;;;;21.57;11.80;;;24.30;34.10;;;;;;4290719;33;20595;-72
2021/03/27 13:33:01;;;;;;;21.27;11.07;;;23.70;34.00;;;;;;4288569;33;20252;-76
2021/03/27 13:35:51;;;;;;;18.80;10.60;;;23.90;33.50;;;;;;4287583;33;20162;-76
2021/03/27 13:38:42;;;;;;;16.12;9.32;;;23.90;33.60;;;;;;4294762;33;20414;-75
2021/03/27 13:41:20;;;;;;;16.57;9.10;;;23.00;34.40;;;;;;4325549;33;20192;-75
2021/03/27 13:44:05;;;;;;;17.00;9.03;;;22.60;34.50;;;;;;4319144;33;20180;-75
2021/03/27 13:46:44;;;;;;;16.43;9.03;;;22.20;35.00;;;;;;4330675;33;20248;-75
2021/03/27 13:49:19;;;;;;;16.10;8.50;;;21.80;36.90;;;;;;4331585;33;20160;-75
2021/03/27 13:52:23;;;;;;;19.87;10.07;;;21.60;36.70;;;;;;4332731;33;20247;-75
2021/03/27 13:55:03;;;;;;;18.20;9.20;;;20.90;37.80;;;;;;4304577;33;20229;-75
2021/03/27 13:57:42;;;;;;;19.10;9.43;;;20.50;39.10;;;;;;4301233;33;20165;-75
2021/03/27 14:00:16;;;;;;;20.40;10.17;;;20.20;40.00;;;;;;4311777;32;20259;-76
2021/03/27 14:02:54;;;;;;;22.60;10.90;;;19.90;41.20;;;;;;4392904;32;20205;-75
2021/03/27 14:05:33;;;;;;;20.47;10.83;;;19.70;41.50;;;;;;4392277;32;20175;-76
2021/03/27 14:08:30;;;;;;;22.57;10.23;;;19.60;42.10;;;;;;4392648;32;20221;-76
2021/03/27 14:11:11;;;;;;;22.60;10.10;;;19.30;42.30;;;;;;4392756;32;20151;-75
2021/03/27 14:14:03;;;;;;;22.73;10.70;;;19.20;43.00;;;;;;4393831;32;20170;-75